Flight Track Log - Related Links

Times and Time Zones

All times are in EDT time to prevent confusion due to time zone crossing. See the CSJ915 flight status page for this flight to view local times or setup timezone preferences in your user account.

Time Position Orientation Groundspeed Altitude Reporting Facility
EDT Latitude Longitude Course Direction KTS MPH feet Rate Location/Type
Mon 08:50:26 PM 39.8242 -82.9169 52° Northeast 77 89 1,300  Level Indianapolis Center
Mon 08:51:27 PM 39.8383 -82.8942 51° Northeast 83 96 2,000 787 Climbing Indianapolis Center
Mon 08:52:28 PM 39.8564 -82.8719 43° Northeast 102 117 2,900 835 Climbing Indianapolis Center
Mon 08:53:22 PM 39.8725 -82.8517 44° Northeast 87 100 3,600 783 Climbing Indianapolis Center
Mon 08:54:23 PM 39.8906 -82.8303 42° Northeast 88 101 4,400 732 Climbing Indianapolis Center
Mon 08:55:25 PM 39.9103 -82.8075 42° Northeast 91 105 5,100 732 Climbing Indianapolis Center
Mon 08:56:26 PM 39.9289 -82.7842 44° Northeast 92 106 5,900 683 Climbing Indianapolis Center
Mon 08:57:28 PM 39.9475 -82.7592 46° Northeast 94 108 6,500 629 Climbing Indianapolis Center
Mon 08:58:30 PM 39.9678 -82.7353 42° Northeast 98 113 7,200 634 Climbing Indianapolis Center
Mon 08:59:31 PM 39.9867 -82.7075 48° Northeast 102 117 7,800 585 Climbing Indianapolis Center
Mon 09:00:33 PM 40.0069 -82.6833 42° Northeast 99 114 8,400 585 Climbing Indianapolis Center
Mon 09:01:34 PM 40.0272 -82.6597 42° Northeast 98 113 9,000 585 Climbing Indianapolis Center
Mon 09:02:36 PM 40.0503 -82.6289 46° Northeast 101 116 9,600 537 Climbing Indianapolis Center
Mon 09:03:37 PM 40.0700 -82.6028 45° Northeast 101 116 10,100 488 Climbing Indianapolis Center
Mon 09:04:39 PM 40.0939 -82.5833 32° Northeast 101 116 10,600 435 Climbing Indianapolis Center
Mon 09:05:41 PM 40.1178 -82.5622 34° Northeast 104 120 11,000 195 Climbing Indianapolis Center
Mon 09:06:42 PM 40.1489 -82.5372 32° Northeast 131 151 11,000 49 Level Indianapolis Center
Mon 09:07:43 PM 40.1842 -82.5069 33° Northeast 151 174 11,100  Climbing Indianapolis Center
Mon 09:08:45 PM 40.2208 -82.4747 34° Northeast 158 182 11,000 -49 Descending Indianapolis Center
Mon 09:09:46 PM 40.2569 -82.4439 33° Northeast 160 184 11,000  Level Indianapolis Center
Mon 09:10:48 PM 40.2956 -82.4125 32° Northeast 161 185 11,000  Level Indianapolis Center
Mon 09:11:49 PM 40.3328 -82.3828 31° Northeast 157 181 11,000  Level Indianapolis Center
Mon 09:12:51 PM 40.3775 -82.3472 31° Northeast 159 183 11,000  Level Indianapolis Center
Mon 09:13:52 PM 40.4167 -82.3169 30° Northeast 163 188 11,000  Level Indianapolis Center
Mon 09:14:53 PM 40.4550 -82.2856 32° Northeast 162 186 11,000  Level Indianapolis Center
Mon 09:15:55 PM 40.4939 -82.2539 32° Northeast 164 189 11,000  Level Indianapolis Center
Mon 09:16:56 PM 40.5311 -82.2206 34° Northeast 161 185 11,000  Level Indianapolis Center
Mon 09:17:58 PM 40.5686 -82.1886 33° Northeast 161 185 11,000  Level Indianapolis Center
Mon 09:18:59 PM 40.6069 -82.1569 32° Northeast 161 185 11,000  Level Indianapolis Center
Mon 09:20:01 PM 40.6436 -82.1242 34° Northeast 158 182 11,000  Level Indianapolis Center
Mon 09:20:21 PM 40.6553 -82.1131 36° Northeast 150 173 11,000  Level Cleveland Center
Mon 09:21:21 PM 40.6953 -82.0811 31° Northeast 150 173 11,000  Level Cleveland Center
Mon 09:22:05 PM 40.7247 -82.0597 29° Northeast 156 180 11,000  Level Cleveland Center
Mon 09:22:21 PM 40.7331 -82.0517 36° Northeast 150 173 11,000  Level Cleveland Center
Mon 09:22:53 PM 40.7542 -82.0386 25° Northeast 157 181 11,000  Level Cleveland Center
Mon 09:23:21 PM 40.7689 -82.0197 44° Northeast 150 173 11,000  Level Cleveland Center
Mon 09:24:00 PM 40.7942 -82.0039 25° Northeast 155 178 11,000  Level Cleveland Center
Mon 09:24:21 PM 40.8069 -81.9903 39° Northeast 150 173 11,000  Level Cleveland Center
Mon 09:24:48 PM 40.8236 -81.9825 19° North 155 178 11,000  Level Cleveland Center
Mon 09:25:21 PM 40.8428 -81.9581 44° Northeast 150 173 11,000  Level Cleveland Center
Mon 09:25:49 PM 40.8594 -81.9475 26° Northeast 156 180 11,000  Level Cleveland Center
Mon 09:26:21 PM 40.8783 -81.9314 33° Northeast 150 173 11,000  Level Cleveland Center
Mon 09:26:50 PM 40.8994 -81.9153 30° Northeast 155 178 11,000  Level Cleveland Center
Mon 09:27:21 PM 40.9164 -81.8992 36° Northeast 150 173 11,000  Level Cleveland Center
Mon 09:27:51 PM 40.9353 -81.8858 28° Northeast 158 182 11,000  Level Cleveland Center
Mon 09:28:21 PM 40.9542 -81.8697 33° Northeast 150 173 11,000  Level Cleveland Center
Mon 09:28:58 PM 40.9753 -81.8536 30° Northeast 157 181 11,000  Level Cleveland Center
Mon 09:29:21 PM 40.9900 -81.8375 40° Northeast 150 173 11,000  Level Cleveland Center
Mon 09:30:21 PM 41.0278 -81.8053 33° Northeast 155 178 11,000  Level Cleveland Center
Mon 09:30:53 PM 41.0447 -81.7917 31° Northeast 161 185 11,000  Level Cleveland Center
Mon 09:31:21 PM 41.0614 -81.7783 31° Northeast 155 178 11,000  Level Cleveland Center
Mon 09:32:06 PM 41.0908 -81.7542 32° Northeast 159 183 11,000  Level Cleveland Center
Mon 09:33:06 PM 41.1289 -81.7217 33° Northeast 157 181 11,000  Level Cleveland Center
Mon 09:34:07 PM 41.1667 -81.6892 33° Northeast 158 182 11,000  Level Cleveland Center
Mon 09:35:07 PM 41.2025 -81.6594 32° Northeast 158 182 11,000  Level Cleveland Center
Mon 09:36:02 PM 41.2381 -81.6325 30° Northeast 161 185 11,000 52 Level Cleveland Center
Mon 09:37:03 PM 41.2758 -81.5972 35° Northeast 162 186 11,100  Climbing Cleveland Center
Mon 09:38:03 PM 41.3178 -81.5672 28° Northeast 162 186 11,000 -52 Descending Cleveland Center
Mon 09:38:58 PM 41.3494 -81.5403 33° Northeast 162 186 11,000  Level Cleveland Center
Mon 09:39:58 PM 41.3914 -81.5075 30° Northeast 160 184 11,000  Level Cleveland Center
Mon 09:40:59 PM 41.4250 -81.4719 38° Northeast 162 186 11,000  Level Cleveland Center
Mon 09:41:33 PM 41.4439 -81.4611 23° Northeast 173 199 11,000 64 Level Cleveland Center
Mon 09:42:33 PM 41.4817 -81.4286 33° Northeast 181 208 11,100  Climbing Cleveland Center
Mon 09:43:33 PM 41.5214 -81.3958 32° Northeast 165 190 11,000 -50 Descending Cleveland Center
Mon 09:44:33 PM 41.5569 -81.3628 35° Northeast 159 183 11,000  Level Cleveland Center
Mon 09:45:33 PM 41.5947 -81.3300 33° Northeast 159 183 11,000  Level Cleveland Center
Mon 09:46:33 PM 41.6306 -81.2997 32° Northeast 159 183 11,000  Level Cleveland Center
Mon 09:47:33 PM 41.6681 -81.2669 33° Northeast 159 183 11,000  Level Cleveland Center
Mon 09:48:33 PM 41.7081 -81.2339 32° Northeast 159 183 11,000  Level Cleveland Center
Mon 09:49:33 PM 41.7436 -81.2008 35° Northeast 153 176 11,000  Level Cleveland Center
Mon 09:50:33 PM 41.7814 -81.1706 31° Northeast 153 176 11,000  Level Cleveland Center
Mon 09:51:33 PM 41.8189 -81.1347 35° Northeast 153 176 11,000  Level Cleveland Center
Mon 09:52:33 PM 41.8567 -81.1072 28° Northeast 153 176 11,000  Level Cleveland Center
Mon 09:53:33 PM 41.8942 -81.0769 31° Northeast 153 176 11,000  Level Cleveland Center
Mon 09:54:33 PM 41.9319 -81.0436 33° Northeast 153 176 11,000  Level Cleveland Center
Mon 09:55:33 PM 41.9717 -81.0075 34° Northeast 163 188 11,000  Level Cleveland Center
Mon 09:56:33 PM 42.0094 -80.9744 33° Northeast 163 188 11,000  Level Cleveland Center
Mon 09:57:33 PM 42.0447 -80.9411 35° Northeast 163 188 11,000  Level Cleveland Center
Mon 09:58:33 PM 42.0844 -80.9078 32° Northeast 168 193 11,000  Level Cleveland Center
Mon 09:59:33 PM 42.1222 -80.8742 33° Northeast 168 193 11,000  Level Cleveland Center
Mon 10:00:33 PM 42.1597 -80.8408 33° Northeast 163 188 11,000  Level Cleveland Center
Mon 10:01:33 PM 42.1994 -80.8044 34° Northeast 163 188 11,000  Level Cleveland Center
Mon 10:02:33 PM 42.2369 -80.7711 33° Northeast 163 188 11,000  Level Cleveland Center
Mon 10:03:33 PM 42.2747 -80.7375 33° Northeast 163 188 11,000  Level Cleveland Center
Mon 10:04:33 PM 42.3164 -80.7039 31° Northeast 158 182 11,000  Level Cleveland Center
Mon 10:05:33 PM 42.3539 -80.6703 34° Northeast 158 182 11,000  Level Cleveland Center
Mon 10:06:33 PM 42.3914 -80.6339 36° Northeast 158 182 11,000  Level Cleveland Center
Mon 10:07:33 PM 42.4289 -80.6028 31° Northeast 158 182 11,000  Level Cleveland Center
Mon 10:08:33 PM 42.4686 -80.5633 36° Northeast 165 190 11,000  Level Cleveland Center
Mon 10:09:33 PM 42.5061 -80.5353 29° Northeast 165 190 11,000  Level Cleveland Center
Mon 10:10:33 PM 42.5414 -80.4986 37° Northeast 160 184 11,000  Level Cleveland Center
Mon 10:11:33 PM 42.5789 -80.4647 34° Northeast 160 184 11,000  Level Cleveland Center
Mon 10:12:33 PM 42.6144 -80.4308 35° Northeast 160 184 11,000 -150 Level Cleveland Center
Mon 10:13:33 PM 42.6497 -80.4025 31° Northeast 155 178 10,700 -500 Descending Cleveland Center
Mon 10:14:33 PM 42.6933 -80.3686 30° Northeast 170 196 10,000 -750 Descending Cleveland Center
Mon 10:15:33 PM 42.7433 -80.3231 34° Northeast 185 213 9,200 -800 Descending Cleveland Center

Login

Don't have an account? Register now (free) for customized features, flight alerts, and more!